Veidnes — LLSD — position and weather

sailwx.info

Track history (hours):
 
Tides and Currents Weather Stations Pressure Air Temp Water Temp Dewpoint Dewpoint Depression Visibility Wind Speed Wind Dir Waves Ship Positions

Veidnes

Last reported at 2016-Dec-02 22:33 UTC. Time now 2016-Dec-08 14:27 UTC.
Position N 67°59' E 015°46'.

Length 51 m; draft 5 m.

Type: Cargo ship. MMSI: 259237000.

Date/timePositionNaut miles runAvg speedWind from/ knotsBaromVisibWave heightAir tempDewpointWater temp
2016-Dec-02 22:33N 67°59' E 015°46'1 1.2
2016-Dec-02 21:28N 67°58' E 015°48'0 0.0
2016-Dec-02 20:32N 67°58' E 015°48'0 0.0
2016-Dec-02 19:20N 67°58' E 015°48'0 0.0
2016-Dec-02 18:32N 67°58' E 015°48'2 1.8
2016-Dec-02 17:33N 67°58' E 015°44'7 7.2
2016-Dec-02 16:33N 67°57' E 015°25'1 1.4
2016-Dec-02 15:32N 67°57' E 015°29'6 6.2
2016-Dec-02 14:32N 67°58' E 015°45'1 1.4
2016-Dec-02 13:32N 67°58' E 015°48'0 0.0
2016-Dec-02 12:32N 67°58' E 015°48'6 6.3
2016-Dec-02 11:33N 67°58' E 015°32'5 5.5
2016-Dec-02 10:33N 68°01' E 015°20'0 0.1
2016-Dec-02 09:32N 68°01' E 015°20'0 0.0
2016-Dec-02 08:33N 68°01' E 015°20'0 0.0
2016-Dec-02 07:33N 68°01' E 015°20'0 0.0
2016-Dec-02 06:32N 68°01' E 015°20'0 0.0
2016-Dec-02 05:33N 68°01' E 015°20'0 0.0
2016-Dec-02 04:32N 68°01' E 015°20'0 0.0
2016-Dec-02 03:32N 68°01' E 015°20'0 0.0
2016-Dec-02 02:32N 68°01' E 015°20'0 0.0
2016-Dec-02 01:33N 68°01' E 015°20'0 0.0
2016-Dec-02 00:33N 68°01' E 015°20'0 0.0
2016-Dec-01 23:32N 68°01' E 015°20'0 0.0
2016-Dec-01 22:33N 68°01' E 015°20'0 0.0
2016-Dec-01 21:33N 68°01' E 015°20'0 0.0
2016-Dec-01 20:33N 68°01' E 015°20'0 0.0
2016-Dec-01 19:33N 68°01' E 015°20'0 0.0
2016-Dec-01 18:32N 68°01' E 015°20'0 0.0
2016-Dec-01 17:33N 68°01' E 015°20'0 0.0
2016-Dec-01 16:33N 68°01' E 015°20'0 0.0
2016-Dec-01 15:33N 68°01' E 015°20'0 0.0
2016-Dec-01 14:33N 68°01' E 015°20'0 0.0
2016-Dec-01 13:33N 68°01' E 015°20'0 0.0
2016-Dec-01 12:33N 68°01' E 015°20'0 0.0
2016-Dec-01 11:31N 68°01' E 015°20'0 0.0
2016-Dec-01 10:33N 68°01' E 015°20'0 0.0
2016-Dec-01 09:33N 68°01' E 015°20'0 0.4
2016-Dec-01 08:33N 68°01' E 015°21'6 5.5
2016-Dec-01 07:33N 67°58' E 015°33'6 5.7
2016-Dec-01 06:32N 67°58' E 015°49'0 0.0
2016-Dec-01 05:33N 67°58' E 015°48'0 0.0
2016-Dec-01 04:33N 67°58' E 015°48'6 6.0
2016-Dec-01 03:33N 67°58' E 015°33'6 6.3
2016-Dec-01 02:33N 68°00' E 015°18'7 7.3
2016-Dec-01 01:33N 68°07' E 015°07'7 7.4
2016-Dec-01 00:33N 68°13' E 014°57'8 7.6
2016-Nov-30 23:33N 68°20' E 015°01'7 6.5
2016-Nov-30 22:33N 68°26' E 015°10'6 6.4
2016-Nov-30 21:32N 68°33' E 015°10'7 7.0
2016-Nov-30 20:33N 68°39' E 015°21'6 6.4
2016-Nov-30 19:33N 68°45' E 015°25'8 7.6
2016-Nov-30 18:33N 68°52' E 015°24'3 3.1
2016-Nov-30 17:33N 68°54' E 015°17'0 0.0
2016-Nov-30 16:33N 68°54' E 015°17'0 0.0
2016-Nov-30 15:33N 68°54' E 015°17'0 0.0
2016-Nov-30 14:33N 68°54' E 015°17'0 0.0
2016-Nov-30 13:33N 68°54' E 015°17'1 1.0
2016-Nov-30 12:34N 68°54' E 015°20'6 6.0
2016-Nov-30 11:33N 68°49' E 015°26'5 5.1
2016-Nov-30 10:33N 68°43' E 015°26'6 6.0
2016-Nov-30 09:33N 68°38' E 015°20'6 6.1
2016-Nov-30 08:33N 68°33' E 015°10'6 5.7
2016-Nov-30 07:33N 68°27' E 015°11'6 6.2
2016-Nov-30 06:33N 68°22' E 015°03'6 6.4
2016-Nov-30 05:33N 68°16' E 014°57'6 6.0
2016-Nov-30 04:33N 68°10' E 015°02'6 5.9
2016-Nov-30 03:33N 68°05' E 015°11'6 6.2
2016-Nov-30 02:33N 67°59' E 015°18'1 0.7
2016-Nov-30 01:33N 67°59' E 015°19'0 0.0
2016-Nov-30 00:33N 67°59' E 015°19'0 0.0
2016-Nov-29 23:32N 67°59' E 015°19'0 0.0
2016-Nov-29 22:33N 67°59' E 015°19'2 2.4
2016-Nov-29 21:32N 68°01' E 015°20'0 0.0
2016-Nov-29 20:31N 68°01' E 015°20'0 0.0
2016-Nov-29 19:31N 68°01' E 015°20'0 0.0
2016-Nov-29 18:33N 68°01' E 015°20'0 0.0
2016-Nov-29 17:29N 68°01' E 015°20'0 0.0
2016-Nov-29 16:32N 68°01' E 015°20'0 0.0
2016-Nov-29 15:33N 68°01' E 015°20'0 0.0
2016-Nov-29 14:32N 68°01' E 015°20'0 0.0
2016-Nov-29 13:33N 68°01' E 015°20'0 0.0
2016-Nov-29 12:31N 68°01' E 015°20'0 0.0
2016-Nov-29 11:30N 68°01' E 015°20'0 0.0
2016-Nov-29 10:33N 68°01' E 015°20'0 0.0
2016-Nov-29 09:31N 68°01' E 015°20'0 0.0
2016-Nov-29 08:33N 68°01' E 015°20'0 0.0
2016-Nov-29 07:33N 68°01' E 015°20'0 0.0
2016-Nov-29 06:32N 68°01' E 015°20'0 0.0
2016-Nov-29 05:32N 68°01' E 015°20'0 0.0
2016-Nov-29 04:32N 68°01' E 015°20'0 0.0
2016-Nov-29 03:32N 68°01' E 015°20'0 0.0
2016-Nov-29 02:33N 68°01' E 015°20'0 0.0
2016-Nov-29 01:33N 68°01' E 015°20'0 0.0
2016-Nov-29 00:31N 68°01' E 015°20'0 0.0
2016-Nov-28 23:30N 68°01' E 015°20'0 0.0
2016-Nov-28 22:33N 68°01' E 015°20'0 0.0
2016-Nov-28 21:33N 68°01' E 015°20'0 0.0
2016-Nov-28 20:31N 68°01' E 015°20'0 0.0
2016-Nov-28 19:33N 68°01' E 015°20'0 0.0
2016-Nov-28 18:33N 68°01' E 015°20'0 0.0
2016-Nov-28 17:31N 68°01' E 015°20'0 0.0
2016-Nov-28 16:32N 68°01' E 015°20'0 0.0
2016-Nov-28 15:33N 68°01' E 015°20'0 0.0
2016-Nov-28 14:31N 68°01' E 015°20'0 0.5
2016-Nov-28 13:33N 68°01' E 015°21'8 7.5
2016-Nov-28 12:32N 68°07' E 015°08'8 8.2
2016-Nov-28 11:33N 68°13' E 014°56'8 8.0
2016-Nov-28 10:33N 68°21' E 015°02'9 8.6
2016-Nov-28 09:33N 68°29' E 015°13'7 7.1
2016-Nov-28 08:33N 68°34' E 015°00'1 1.1
2016-Nov-28 07:33N 68°34' E 014°58'1 0.7
2016-Nov-28 06:33N 68°34' E 014°59'6 6.4
2016-Nov-28 05:33N 68°30' E 015°12'5 5.4
2016-Nov-28 04:33N 68°25' E 015°07'6 5.5
2016-Nov-28 03:32N 68°20' E 014°60'6 6.2
2016-Nov-28 02:33N 68°14' E 014°56'7 7.3
2016-Nov-28 01:33N 68°07' E 014°52'6 6.3
2016-Nov-28 00:32N 68°00' E 014°48'6 6.3
2016-Nov-27 23:33N 67°54' E 014°45'4 4.4
2016-Nov-27 22:33N 67°50' E 014°47'6 5.8
2016-Nov-27 21:33N 67°44' E 014°45'0 0.0
2016-Nov-27 20:33N 67°44' E 014°45'0 0.1
2016-Nov-27 19:33N 67°44' E 014°45'0 0.0
2016-Nov-27 18:32N 67°44' E 014°45'1 0.6
2016-Nov-27 17:30N 67°44' E 014°47'0 0.5
2016-Nov-27 16:32N 67°44' E 014°46'0 0.0
2016-Nov-27 15:31N 67°44' E 014°46'0 0.0
2016-Nov-27 14:31N 67°44' E 014°46'0 0.0
2016-Nov-27 13:33N 67°44' E 014°46'0 0.0
2016-Nov-27 12:33N 67°44' E 014°46'0 0.0
2016-Nov-27 11:33N 67°44' E 014°46'0 0.0
2016-Nov-27 10:31N 67°44' E 014°46'0 0.0
2016-Nov-27 09:32N 67°44' E 014°46'0 0.0
2016-Nov-27 08:34N 67°44' E 014°46'4 3.0
2016-Nov-27 07:13N 67°46' E 014°37'5 6.7
2016-Nov-27 06:32N 67°50' E 014°31'6 4.3
2016-Nov-27 05:09N 67°55' E 014°36'5 7.7
2016-Nov-27 04:33N 67°60' E 014°41'8 7.8
2016-Nov-27 03:33N 68°07' E 014°49'8 7.9
2016-Nov-27 02:31N 68°14' E 014°56'8 7.7
2016-Nov-27 01:31N 68°22' E 015°03'27 7.9
2016-Nov-26 22:03N 68°48' E 015°26'4 7.3
2016-Nov-26 21:33N 68°52' E 015°24'4 3.6
2016-Nov-26 20:33N 68°54' E 015°17'2 1.7
2016-Nov-26 19:33N 68°54' E 015°22'7 6.5
2016-Nov-26 18:32N 68°48' E 015°26'7 7.4
2016-Nov-26 17:32N 68°40' E 015°25'12 6.0
2016-Nov-26 15:33N 68°29' E 015°12'8 6.4
2016-Nov-26 14:19N 68°22' E 015°03'5 6.1
2016-Nov-26 13:33N 68°18' E 014°58'6 6.0
2016-Nov-26 12:33N 68°12' E 014°59'6 6.4
2016-Nov-26 11:33N 68°06' E 015°08'7 6.6
2016-Nov-26 10:32N 68°01' E 015°17'2 2.2
2016-Nov-26 09:33N 67°59' E 015°19'0 0.0
2016-Nov-26 08:33N 67°59' E 015°19'0 0.0
2016-Nov-26 07:33N 67°59' E 015°19'10 4.1
2016-Nov-26 05:10N 68°07' E 015°07'5 7.2
2016-Nov-26 04:29N 68°11' E 014°59'7 7.0
2016-Nov-26 03:33N 68°18' E 014°58'8 7.9
2016-Nov-26 02:32N 68°25' E 015°08'8 7.0
2016-Nov-26 01:25N 68°33' E 015°10'7 7.5
2016-Nov-26 00:32N 68°38' E 015°20'4 3.9
2016-Nov-25 23:32N 68°42' E 015°25'0 0.0
2016-Nov-25 22:32N 68°42' E 015°25'0 0.0
2016-Nov-25 21:33N 68°42' E 015°25'0 0.0
2016-Nov-25 20:32N 68°42' E 015°25'0 0.0
2016-Nov-25 19:33N 68°42' E 015°25'0 0.0
2016-Nov-25 18:32N 68°42' E 015°25'0 0.0
2016-Nov-25 17:31N 68°42' E 015°25'0 0.0
2016-Nov-25 16:33N 68°42' E 015°25'  
Track history (hours):
 
Tides and Currents Weather Stations Pressure Air Temp Water Temp Dewpoint Dewpoint Depression Visibility Wind Speed Wind Dir Waves Ship Positions

Veidnes

Last reported at 2016-Dec-02 22:33 UTC. Time now 2016-Dec-08 14:27 UTC.
Position N 67°59' E 015°46'.

Length 51 m; draft 5 m.

Type: Cargo ship. MMSI: 259237000.

Date/timePositionNaut miles runAvg speedWind from/ knotsBaromVisibWave heightAir tempDewpointWater temp
2016-Dec-02 22:33N 67°59' E 015°46'1 1.2
2016-Dec-02 21:28N 67°58' E 015°48'0 0.0
2016-Dec-02 20:32N 67°58' E 015°48'0 0.0
2016-Dec-02 19:20N 67°58' E 015°48'0 0.0
2016-Dec-02 18:32N 67°58' E 015°48'2 1.8
2016-Dec-02 17:33N 67°58' E 015°44'7 7.2
2016-Dec-02 16:33N 67°57' E 015°25'1 1.4
2016-Dec-02 15:32N 67°57' E 015°29'6 6.2
2016-Dec-02 14:32N 67°58' E 015°45'1 1.4
2016-Dec-02 13:32N 67°58' E 015°48'0 0.0
2016-Dec-02 12:32N 67°58' E 015°48'6 6.3
2016-Dec-02 11:33N 67°58' E 015°32'5 5.5
2016-Dec-02 10:33N 68°01' E 015°20'0 0.1
2016-Dec-02 09:32N 68°01' E 015°20'0 0.0
2016-Dec-02 08:33N 68°01' E 015°20'0 0.0
2016-Dec-02 07:33N 68°01' E 015°20'0 0.0
2016-Dec-02 06:32N 68°01' E 015°20'0 0.0
2016-Dec-02 05:33N 68°01' E 015°20'0 0.0
2016-Dec-02 04:32N 68°01' E 015°20'0 0.0
2016-Dec-02 03:32N 68°01' E 015°20'0 0.0
2016-Dec-02 02:32N 68°01' E 015°20'0 0.0
2016-Dec-02 01:33N 68°01' E 015°20'0 0.0
2016-Dec-02 00:33N 68°01' E 015°20'0 0.0
2016-Dec-01 23:32N 68°01' E 015°20'0 0.0
2016-Dec-01 22:33N 68°01' E 015°20'0 0.0
2016-Dec-01 21:33N 68°01' E 015°20'0 0.0
2016-Dec-01 20:33N 68°01' E 015°20'0 0.0
2016-Dec-01 19:33N 68°01' E 015°20'0 0.0
2016-Dec-01 18:32N 68°01' E 015°20'0 0.0
2016-Dec-01 17:33N 68°01' E 015°20'0 0.0
2016-Dec-01 16:33N 68°01' E 015°20'0 0.0
2016-Dec-01 15:33N 68°01' E 015°20'0 0.0
2016-Dec-01 14:33N 68°01' E 015°20'0 0.0
2016-Dec-01 13:33N 68°01' E 015°20'0 0.0
2016-Dec-01 12:33N 68°01' E 015°20'0 0.0
2016-Dec-01 11:31N 68°01' E 015°20'0 0.0
2016-Dec-01 10:33N 68°01' E 015°20'0 0.0
2016-Dec-01 09:33N 68°01' E 015°20'0 0.4
2016-Dec-01 08:33N 68°01' E 015°21'6 5.5
2016-Dec-01 07:33N 67°58' E 015°33'6 5.7
2016-Dec-01 06:32N 67°58' E 015°49'0 0.0
2016-Dec-01 05:33N 67°58' E 015°48'0 0.0
2016-Dec-01 04:33N 67°58' E 015°48'6 6.0
2016-Dec-01 03:33N 67°58' E 015°33'6 6.3
2016-Dec-01 02:33N 68°00' E 015°18'7 7.3
2016-Dec-01 01:33N 68°07' E 015°07'7 7.4
2016-Dec-01 00:33N 68°13' E 014°57'8 7.6
2016-Nov-30 23:33N 68°20' E 015°01'7 6.5
2016-Nov-30 22:33N 68°26' E 015°10'6 6.4
2016-Nov-30 21:32N 68°33' E 015°10'7 7.0
2016-Nov-30 20:33N 68°39' E 015°21'6 6.4
2016-Nov-30 19:33N 68°45' E 015°25'8 7.6
2016-Nov-30 18:33N 68°52' E 015°24'3 3.1
2016-Nov-30 17:33N 68°54' E 015°17'0 0.0
2016-Nov-30 16:33N 68°54' E 015°17'0 0.0
2016-Nov-30 15:33N 68°54' E 015°17'0 0.0
2016-Nov-30 14:33N 68°54' E 015°17'0 0.0
2016-Nov-30 13:33N 68°54' E 015°17'1 1.0
2016-Nov-30 12:34N 68°54' E 015°20'6 6.0
2016-Nov-30 11:33N 68°49' E 015°26'5 5.1
2016-Nov-30 10:33N 68°43' E 015°26'6 6.0
2016-Nov-30 09:33N 68°38' E 015°20'6 6.1
2016-Nov-30 08:33N 68°33' E 015°10'6 5.7
2016-Nov-30 07:33N 68°27' E 015°11'6 6.2
2016-Nov-30 06:33N 68°22' E 015°03'6 6.4
2016-Nov-30 05:33N 68°16' E 014°57'6 6.0
2016-Nov-30 04:33N 68°10' E 015°02'6 5.9
2016-Nov-30 03:33N 68°05' E 015°11'6 6.2
2016-Nov-30 02:33N 67°59' E 015°18'1 0.7
2016-Nov-30 01:33N 67°59' E 015°19'0 0.0
2016-Nov-30 00:33N 67°59' E 015°19'0 0.0
2016-Nov-29 23:32N 67°59' E 015°19'0 0.0
2016-Nov-29 22:33N 67°59' E 015°19'2 2.4
2016-Nov-29 21:32N 68°01' E 015°20'0 0.0
2016-Nov-29 20:31N 68°01' E 015°20'0 0.0
2016-Nov-29 19:31N 68°01' E 015°20'0 0.0
2016-Nov-29 18:33N 68°01' E 015°20'0 0.0
2016-Nov-29 17:29N 68°01' E 015°20'0 0.0
2016-Nov-29 16:32N 68°01' E 015°20'0 0.0
2016-Nov-29 15:33N 68°01' E 015°20'0 0.0
2016-Nov-29 14:32N 68°01' E 015°20'0 0.0
2016-Nov-29 13:33N 68°01' E 015°20'0 0.0
2016-Nov-29 12:31N 68°01' E 015°20'0 0.0
2016-Nov-29 11:30N 68°01' E 015°20'0 0.0
2016-Nov-29 10:33N 68°01' E 015°20'0 0.0
2016-Nov-29 09:31N 68°01' E 015°20'0 0.0
2016-Nov-29 08:33N 68°01' E 015°20'0 0.0
2016-Nov-29 07:33N 68°01' E 015°20'0 0.0
2016-Nov-29 06:32N 68°01' E 015°20'0 0.0
2016-Nov-29 05:32N 68°01' E 015°20'0 0.0
2016-Nov-29 04:32N 68°01' E 015°20'0 0.0
2016-Nov-29 03:32N 68°01' E 015°20'0 0.0
2016-Nov-29 02:33N 68°01' E 015°20'0 0.0
2016-Nov-29 01:33N 68°01' E 015°20'0 0.0
2016-Nov-29 00:31N 68°01' E 015°20'0 0.0
2016-Nov-28 23:30N 68°01' E 015°20'0 0.0
2016-Nov-28 22:33N 68°01' E 015°20'0 0.0
2016-Nov-28 21:33N 68°01' E 015°20'0 0.0
2016-Nov-28 20:31N 68°01' E 015°20'0 0.0
2016-Nov-28 19:33N 68°01' E 015°20'0 0.0
2016-Nov-28 18:33N 68°01' E 015°20'0 0.0
2016-Nov-28 17:31N 68°01' E 015°20'0 0.0
2016-Nov-28 16:32N 68°01' E 015°20'0 0.0
2016-Nov-28 15:33N 68°01' E 015°20'0 0.0
2016-Nov-28 14:31N 68°01' E 015°20'0 0.5
2016-Nov-28 13:33N 68°01' E 015°21'8 7.5
2016-Nov-28 12:32N 68°07' E 015°08'8 8.2
2016-Nov-28 11:33N 68°13' E 014°56'8 8.0
2016-Nov-28 10:33N 68°21' E 015°02'9 8.6
2016-Nov-28 09:33N 68°29' E 015°13'7 7.1
2016-Nov-28 08:33N 68°34' E 015°00'1 1.1
2016-Nov-28 07:33N 68°34' E 014°58'1 0.7
2016-Nov-28 06:33N 68°34' E 014°59'6 6.4
2016-Nov-28 05:33N 68°30' E 015°12'5 5.4
2016-Nov-28 04:33N 68°25' E 015°07'6 5.5
2016-Nov-28 03:32N 68°20' E 014°60'6 6.2
2016-Nov-28 02:33N 68°14' E 014°56'7 7.3
2016-Nov-28 01:33N 68°07' E 014°52'6 6.3
2016-Nov-28 00:32N 68°00' E 014°48'6 6.3
2016-Nov-27 23:33N 67°54' E 014°45'4 4.4
2016-Nov-27 22:33N 67°50' E 014°47'6 5.8
2016-Nov-27 21:33N 67°44' E 014°45'0 0.0
2016-Nov-27 20:33N 67°44' E 014°45'0 0.1
2016-Nov-27 19:33N 67°44' E 014°45'0 0.0
2016-Nov-27 18:32N 67°44' E 014°45'1 0.6
2016-Nov-27 17:30N 67°44' E 014°47'0 0.5
2016-Nov-27 16:32N 67°44' E 014°46'0 0.0
2016-Nov-27 15:31N 67°44' E 014°46'0 0.0
2016-Nov-27 14:31N 67°44' E 014°46'0 0.0
2016-Nov-27 13:33N 67°44' E 014°46'0 0.0
2016-Nov-27 12:33N 67°44' E 014°46'0 0.0
2016-Nov-27 11:33N 67°44' E 014°46'0 0.0
2016-Nov-27 10:31N 67°44' E 014°46'0 0.0
2016-Nov-27 09:32N 67°44' E 014°46'0 0.0
2016-Nov-27 08:34N 67°44' E 014°46'4 3.0
2016-Nov-27 07:13N 67°46' E 014°37'5 6.7
2016-Nov-27 06:32N 67°50' E 014°31'6 4.3
2016-Nov-27 05:09N 67°55' E 014°36'5 7.7
2016-Nov-27 04:33N 67°60' E 014°41'8 7.8
2016-Nov-27 03:33N 68°07' E 014°49'8 7.9
2016-Nov-27 02:31N 68°14' E 014°56'8 7.7
2016-Nov-27 01:31N 68°22' E 015°03'27 7.9
2016-Nov-26 22:03N 68°48' E 015°26'4 7.3
2016-Nov-26 21:33N 68°52' E 015°24'4 3.6
2016-Nov-26 20:33N 68°54' E 015°17'2 1.7
2016-Nov-26 19:33N 68°54' E 015°22'7 6.5
2016-Nov-26 18:32N 68°48' E 015°26'7 7.4
2016-Nov-26 17:32N 68°40' E 015°25'12 6.0
2016-Nov-26 15:33N 68°29' E 015°12'8 6.4
2016-Nov-26 14:19N 68°22' E 015°03'5 6.1
2016-Nov-26 13:33N 68°18' E 014°58'6 6.0
2016-Nov-26 12:33N 68°12' E 014°59'6 6.4
2016-Nov-26 11:33N 68°06' E 015°08'7 6.6
2016-Nov-26 10:32N 68°01' E 015°17'2 2.2
2016-Nov-26 09:33N 67°59' E 015°19'0 0.0
2016-Nov-26 08:33N 67°59' E 015°19'0 0.0
2016-Nov-26 07:33N 67°59' E 015°19'10 4.1
2016-Nov-26 05:10N 68°07' E 015°07'5 7.2
2016-Nov-26 04:29N 68°11' E 014°59'7 7.0
2016-Nov-26 03:33N 68°18' E 014°58'8 7.9
2016-Nov-26 02:32N 68°25' E 015°08'8 7.0
2016-Nov-26 01:25N 68°33' E 015°10'7 7.5
2016-Nov-26 00:32N 68°38' E 015°20'4 3.9
2016-Nov-25 23:32N 68°42' E 015°25'0 0.0
2016-Nov-25 22:32N 68°42' E 015°25'0 0.0
2016-Nov-25 21:33N 68°42' E 015°25'0 0.0
2016-Nov-25 20:32N 68°42' E 015°25'0 0.0
2016-Nov-25 19:33N 68°42' E 015°25'0 0.0
2016-Nov-25 18:32N 68°42' E 015°25'0 0.0
2016-Nov-25 17:31N 68°42' E 015°25'0 0.0
2016-Nov-25 16:33N 68°42' E 015°25'  

Dump ship's entire track history